By Pacific Northwest Chess Center | Saturday, May 16, 2020 11:00 Pacific Daylight Time | Completed
Seats : 200 | Registered : 125 | Available : 75

Event Roster

Section : Jackpot
Avg Rating : 2231 (FIDE) 1581 (USCF) | Section Limit : 200 | Registered : 125
Title Federation State Name Chess.com ID FIDE Rating USCF Rating Status Byes Reg Date
1 IM USA CA Yoo, Christopher Woojin ChristopherYoo 2455 2540 Confirmed 05/16/2020 11:07:03
2 GM USA MA Jimenez, Fidel Corrales ficorrales 2532 2613 Confirmed 05/16/2020 11:06:44
3 GM UKR Baryshpolets, Andrey AndrBaryshpolets 2569 * 2647 * Confirmed 05/16/2020 11:03:02
4 WA Zhang, Kylie Liepardli 0 1325 Confirmed 05/16/2020 10:57:06
5 WIM VIE VA Nguyen, Tien wild_cat99 1971 2103 Confirmed 05/16/2020 10:43:02
6 FM USA NY Chasin, Nico Werner Rank30emz 2303 2396 Confirmed 05/16/2020 10:42:38
7 GM TUR TURKEY Sanal, Vahap SantoBlue 2581 * 0 * Confirmed 05/16/2020 10:41:54
8 WGM RUS RUS Bivol, Alina zabivol_mc 2386 * 2440 * Confirmed 05/16/2020 10:33:39
9 IM IND INDIA Kalyan, Arjun Anonymous1762 2477 0 Confirmed 05/16/2020 10:30:31
10 IM PER MO Escalante, Brian BrianEscalante 2456 2544 Confirmed 05/16/2020 10:29:45
11 NJ Sergeev, Aleksey Michael AlekseyDeBeast 0 * 1894 * Confirmed 05/16/2020 10:28:01
12 GM GER Fridman, Daniel Tormoz 2601 2651 Confirmed 05/16/2020 10:26:58
13 USA TX Karthik, Dhruv dhruvkarthik 1467 * 1856 * Confirmed 05/16/2020 10:15:27
14 USA CA Penagalapati, Abhinav qing29 1802 * 2060 * Confirmed 05/16/2020 10:15:25
15 GM USA NC Moradiabadi, Elshan elshan1985 2555 * 2649 * Confirmed 05/16/2020 10:07:47
16 GM RUS Esipenko, Andrey Andreikka 2682 * 2645 * Confirmed 05/16/2020 09:58:00
17 GM IND INDIA Shyam, Sundar M shyam 2518 * 0 * Confirmed 05/16/2020 09:54:31
18 CM USA FL Zhao, Erick erickerica2017 2039 2270 Confirmed 05/16/2020 09:43:20
19 NM USA NJ Clasby, Derek Christopher knightmare7724 2001 * 2286 * Confirmed 05/16/2020 09:37:41
20 GM CUB CUBA Perez, Yasser Quesada YQPerez 2565 * 2679 * Confirmed 05/16/2020 09:35:22
21 GM USA MO Perez, Yuniesky Quesada tenismaster 2598 * 2673 * Confirmed 05/16/2020 09:35:09
22 GM USA MO Batista, Lazaro Bruzon Gmlazarobruzon 2644 * 2732 * Confirmed 05/16/2020 09:34:54
23 USA TX Zheng, Peter ChessProdigy2408 1643 * 2005 * Confirmed 05/16/2020 09:25:49
24 LM USA CA Ghazarian, Kirk 2Bf41-0 2181 2307 Confirmed 05/16/2020 09:01:57
25 GM IND NA INDIA Chakkravarthy, Deepan emperor87 2535 * 2617 * Confirmed 05/16/2020 08:50:05
26 FM USA NY Liang, Jason Marty435 2367 2403 Confirmed 05/16/2020 08:32:19
27 IM RUS RUS Antonenko, Dmitry Dmitry_antonenko75 2444 * 0 * Confirmed 05/16/2020 08:26:22
28 GM IND INDIA Arjun, Erigaisi Ghandeevam2003 2559 0 Confirmed 05/16/2020 07:42:16
29 GM GEO WA Margvelashvili, Giorgi Margvela90 2523 * 2586 * Confirmed 05/16/2020 07:18:23
30 GM LAT LATVIA Kovalenko, Igor igorkovalenko 2645 * 2726 * Confirmed 05/16/2020 07:14:47
31 IM IND INDIA R, Raja Rithvik starworld123 2408 * 0 * Confirmed 05/16/2020 06:16:54
32 GM RUS UNKNOWN Sarana, Alexey mishanick 2654 2716 Confirmed 05/16/2020 05:18:48
33 WIM SRB SERBIA Injac, Teodora arctic_t00 2286 * 0 * Confirmed 05/16/2020 03:10:03
34 GM UKR UKRAINE Zhukova, Natalia Tashik 2328 * 0 * Confirmed 05/16/2020 01:04:25
35 IM UKR UKRAINE Polivanov, Anatoliy PlayChessSimple 2452 * 0 * Confirmed 05/16/2020 00:28:30
36 LM USA CT Tanenbaum, Zachary BeanScreen 2137 2303 Confirmed 05/15/2020 23:59:42
37 CM USA CA Vu, Leonard DaQuestToNM 1813 * 2000 * Confirmed 05/15/2020 22:04:02
38 CM USA CA Vidyarthi, Vyom 2007checkmate 2090 * 2247 * Confirmed 05/15/2020 22:00:17
39 WCM USA CA Vidyarthi, Omya harkerchess 1709 1934 Confirmed 05/15/2020 21:59:25
40 WGM UZB MO Tokhirjonova, Gulrukhbegim crazy_girl99 2378 * 2434 * Confirmed 05/15/2020 21:40:10
41 WGM USA MA Yip, Carissa Shiwen magician4ma 2421 2493 Confirmed 05/15/2020 21:23:35
42 LM USA FL Venkat, Raghav LilRag 2167 2303 Confirmed 05/15/2020 20:35:30
43 FM USA IN Turgut, Aydin volcanoexplorer 2269 * 2379 * Confirmed 05/15/2020 20:34:24
44 IM PER PERU Leiva, Giuseppe Unico10 2391 0 Confirmed 05/15/2020 20:32:46
45 CM USA MI Zheng, Michael Zihan concordiaberserk 2050 2178 Confirmed 05/15/2020 20:01:30
46 GM USA MA Sevian, Samuel Konavets 2660 2733 Confirmed 05/15/2020 18:24:46
47 USA NY Li, Thomas th0m4sL 1822 * 2098 * Confirmed 05/15/2020 17:06:11
48 GM PAR PARAGUAY Bachman, Axel chito89 2599 2669 Confirmed 05/15/2020 16:20:04
49 LM USA CA Kolay, Alex PushYourPawns0 2208 * 2315 * Confirmed 05/15/2020 15:20:49
50 IM USA TX Wang, Justin JustinWang1234 2447 * 2540 * Confirmed 05/15/2020 15:00:35
51 TUR IN Inonu, Munci Muhsin muncettin 1972 * 2085 * Confirmed 05/15/2020 13:44:52
52 IM CRO Doric, Darko Toro1234 2484 0 Confirmed 05/15/2020 13:17:51
53 USA CA Sairam, Pranav chesspilot01 1810 * 2087 * Confirmed 05/15/2020 12:29:49
54 IM USA CA Hong, Andrew Zhang SpeedofLight0 2444 * 2533 * Confirmed 05/15/2020 12:06:40
55 GM UKR FL Bortnyk, Olexandr Oleksandr_Bortnyk 2598 * 2665 * Confirmed 05/15/2020 11:36:01
56 GM RUS RUS Vitiugov, Nikita Colchonero64 2722 0 Confirmed 05/15/2020 10:47:18
57 USA CA Mei, Austin R TitanChess666 1962 * 2149 * Confirmed 05/15/2020 10:37:51
58 CM USA NJ Zhang, Samuel PickledPickle 2033 2119 Confirmed 05/15/2020 08:46:07
59 GM USA NY Lenderman, Aleksandr AlexanderL 2634 2717 Confirmed 05/15/2020 07:14:09
60 LM USA NJ Zhang, Alan AlanZhang 2077 * 2211 * Confirmed 05/15/2020 06:39:18
61 GM UKR UKRAINE Oleksienko, Mikhailo hitaman 2585 * 2689 * Confirmed 05/15/2020 06:27:22
62 GM UKR UKRAINE Eljanov, Pavel eljanov 2672 * 0 * Confirmed 05/15/2020 05:20:41
63 GM UKR Kuzubov, Yuriy KuzubovYuriy 2643 2736 Confirmed 05/15/2020 01:19:32
64 IM CRO Livaic, Leon Bulldog167 2507 0 Confirmed 05/15/2020 00:25:31
65 IM VIE TX Le, Tuan Minh wonderfultime 2501 2607 Confirmed 05/15/2020 00:15:35
66 USA WA Chen, Aidan POtatershshh 1719 * 1842 * Confirmed 05/14/2020 22:36:45
67 USA WA Jones, Davey V SolarFlareCannon 1593 1819 Confirmed 05/14/2020 21:51:15
68 USA TX Deviprasath, Sharvesh KarateBaby 1578 * 1977 * Confirmed 05/14/2020 21:19:47
69 CM USA CA Ai, Evan CFalcons8 1793 * 2058 * Confirmed 05/14/2020 20:09:40
70 USA PA Tang, Vincent phoenix_2008 1332 * 1861 * Confirmed 05/14/2020 19:33:47
71 CM USA NY Chen, Derek badboychen 1854 * 2059 * Confirmed 05/14/2020 17:46:01
72 GM RUS MO Gordievskiy, Dmitry Gordima 2559 * 2641 * Confirmed 05/14/2020 16:56:37
73 LM USA NJ Tian, Eddy PoloniumChess 2204 * 2326 * Confirmed 05/14/2020 12:13:43
74 IM PER PERU Lujan, Renato Alfredo Terry renatoterrylujan 2504 * 0 * Confirmed 05/14/2020 05:58:52
75 GM KAZ Kotsur, Pavel Barys1974 2517 0 Confirmed 05/14/2020 00:33:17
76 IM TUR TURKEY Can, Isik RogerFederer13 2380 * 0 * Confirmed 05/13/2020 23:41:17
77 GM ARG ARGENTINA Pichot, Alan Platy3 2630 * 2667 * Confirmed 05/13/2020 22:29:19
78 NJ Li, Eric asdfghjkl0010 0 * 1700 * Confirmed 05/13/2020 22:01:23
79 WA Shi, Ted tedshi 0 1575 Confirmed 05/13/2020 21:20:58
80 NM USA TX Chen, Ryo Wenyu chenxiaoyuer 2085 2216 Confirmed 05/13/2020 17:14:35
81 NM USA NJ Lu, Jason EnergeticHay 2025 * 2181 * Confirmed 05/13/2020 15:26:36
82 GM BLR NJ Kovalev, Vladislav vladislavkovalev 2648 2615 Confirmed 05/13/2020 14:00:17
83 IM UKR UKRAINE Osmak, Lulija zajka-molotok 2438 * 0 * Confirmed 05/13/2020 13:33:55
84 GM RUS RUS Sychev, Klementy Sychev_Klementy 2572 * 0 * Confirmed 05/13/2020 13:14:34
85 IM GER GERMANY Baskin, Robert elohunter1999 2390 0 Confirmed 05/13/2020 12:44:14
86 GM RUS RUS Chigaev, Maksim Fandorine 2588 0 Confirmed 05/13/2020 06:54:45
87 GM ISR ISRAEL Huzman, Alex Alexhuzman 2562 * 2589 * Confirmed 05/13/2020 05:53:56
88 GM IND INDIA Sl, Narayanan Indianlad 2618 0 Confirmed 05/12/2020 23:28:24
89 GM IND INDIA Sadhwani, Raunak RaunakSadhwani2005 2545 0 Confirmed 05/12/2020 22:41:27
90 CM USA VA Sriniaiyer, Sudarshan chess_peak 1995 2124 Confirmed 05/12/2020 19:25:37
91 GM ARM ARMENIA Melkumyan, Hrant Hrant_Chessmood 2663 2734 Confirmed 05/12/2020 18:16:10
92 GM ISR Postny, Evgeny Evgeny81 2600 2729 Confirmed 05/12/2020 15:18:59
93 USA WA Liu, Erik Erik_liu 1615 1691 Confirmed 05/12/2020 13:35:18
94 USA MI Rajanish, Abhinav knightboy123 1619 * 1640 * Confirmed 05/12/2020 11:20:49
95 USA MI Rajanish, Adhvaith AD0406 1850 * 1999 * Confirmed 05/12/2020 11:19:20
96 USA NJ Modi, Ethan GutsyEdge 1786 * 2068 * Confirmed 05/12/2020 11:16:05
97 NY Mottola, Max stevis5 0 * 1294 * Confirmed 05/12/2020 10:01:08
98 GM KAZ KAZ Jumabayev, Rinat Jumbo 2654 * 2657 * Confirmed 05/12/2020 09:10:07
99 GM PER LIM PERU Alcantara, Mr. Jose Martinez Jospem 2620 0 Confirmed 05/12/2020 08:06:38
100 GM CRO Bosiocic, Marin Bosiocic 2606 2629 Confirmed 05/12/2020 08:02:59
101 WIM IND INDIA Ravi, Rakshitta rakshi2005 2190 * 0 * Confirmed 05/11/2020 21:28:38
102 WIM VIE VIET NAM Nguyen, Hong Anh binbin239 1970 * 0 * Confirmed 05/11/2020 17:29:29
103 IM CAN WA Kaufman, Ray Mimsychess 2255 * 2362 * Confirmed 05/11/2020 13:35:38
104 IM UKR UKRAINE Skliarov, Viktor viktorskliarov 2376 * 0 * Confirmed 05/11/2020 06:07:32
105 IM IND INDIA Mittal, Aditya vinniethepooh 2438 * 0 * Confirmed 05/11/2020 05:32:18
106 GM RUS RUS Kobalia, Mikhail Kobalia 2614 0 Confirmed 05/11/2020 02:39:12
107 GM KAZ KAZ Kostenko, Petr petrkostenko 2429 * 0 * Confirmed 05/11/2020 00:03:36
108 CM USA CA Kondakov, Adrian ChickenManMan4U 1986 2137 Confirmed 05/10/2020 23:37:04
109 IM RUS RUS Khanin, Semen Semen_Khanin 2482 * 0 * Confirmed 05/10/2020 23:19:00
110 GM RUS RUS Demchenko, Anton Anton_Demchenko 2641 0 Confirmed 05/10/2020 22:50:55
111 GM CUB CUBA Pedraza, Aramis Alvarez pollo2016 2440 * 0 * Confirmed 05/10/2020 22:08:58
112 GM UKR UKRAINE Bernadskiy, Vitaliy VitaliyBernadskiy 2629 0 Confirmed 05/10/2020 16:04:06
113 GM AZE AZE Guseinov, Gadir GGuseinov 2665 0 Confirmed 05/10/2020 15:29:16
114 GM RUS RUS Lugovskoy, Maxim Koksik_13 2420 0 Confirmed 05/10/2020 14:51:53
115 IM USA CA Hilby, Craig TheNomNomFactor 2454 2526 Confirmed 05/10/2020 14:36:14
116 GM RUS RUS Fedoseev, Vladimir Bigfish1995 2678 0 Confirmed 05/10/2020 14:01:57
117 GM SRB SRB Indjic, Aleksandar Beca95 2618 * 2640 * Confirmed 05/10/2020 13:52:08
118 GM RUS RUS Gabrielian, Artur Gabrielian_Artur 2463 0 Confirmed 05/10/2020 13:10:33
119 IM USA NJ Mishra, Abhimanyu knightcheckshadow 2342 * 2407 * Confirmed 05/10/2020 11:14:44
120 GM ISR Gelfand, Boris Remontada2017 2676 * 2622 * Confirmed 05/10/2020 09:16:27
121 IM IND - INDIA Rathnakaran, K RATNAKARAN 2314 * 2554 * Confirmed 05/10/2020 06:46:42
122 GM BIH BIH Predojevic, Borki Kiborg1987 2601 2696 Confirmed 05/10/2020 04:13:41
123 IM IND INDIA Saravana, Krishnan P mbachez 2312 * 0 * Confirmed 05/10/2020 02:04:32
124 IM IND INDIA Nitin, S Fighter008 2381 * 0 * Confirmed 05/10/2020 01:20:31
125 FM USA WA He, Anthony Bi 0gZPanda 2337 2439 Confirmed 05/09/2020 18:02:01